Groton, CT (06340)

7:20 PM EST on November 22, 2014 (GMT -0500)
Groton Dock Thames River | Change Station
CLOSE
Current Station
Personal Weather Station
Location: Groton, CT
Elevation: 0 ft
Nearby Weather Stations

Elev 0 ft 41.36 °N, 72.08 °W | Updated 19 seconds ago

Overcast
Overcast
44.8 °F
Feels Like 39 °F
N
12.5
Wind Variable Wind from WSW
Gusts 16.6 mph

Today
High -- | Low -- °F
--% Chance of Precip.
Yesterday
High -- | Low -- °F
Precip. -- in
6:44 AM 4:23 PM
New Moon, 0% visible
Pressure 30.20 in
Visibility 7.0 miles
Clouds Few 4400 ft
Mostly Cloudy 6000 ft
Overcast 10000 ft
Windchill 39 °F
Dew Point 33 °F
Humidity 62%
Rainfall 0.00 in
Snow Depth Not available.
UV 0 out of 12
Pollen .10 out of 12
Air Quality Not available.
Flu Activity Not available.
METAR KGON 222356Z 23018G24KT 7SM FEW044 BKN060 OVC100 07/M01 A3020 RMK AO2 PK WND 22028/2342 SLP225 T00671011 10067 20044 58015

More Conditions Fewer Conditions

Pressure 30.20 in
Visibility 7.0 miles
Clouds Few 4400 ft
Mostly Cloudy 6000 ft
Overcast 10000 ft
Windchill 39 °F
Dew Point 33 °F
Humidity 62%
Rainfall 0.00 in
Snow Depth Not available.
UV 0 out of 12
Pollen .10 out of 12
Air Quality Not available.
Flu Activity Not available.
METAR KGON 222356Z 23018G24KT 7SM FEW044 BKN060 OVC100 07/M01 A3020 RMK AO2 PK WND 22028/2342 SLP225 T00671011 10067 20044 58015

More Conditions Fewer Conditions

10-Day Weather Forecast

Almanac

Astronomy

Nov. 22, 2014 Rise Set
Actual Time
Civil Twilight
Nautical Twilight
Astronomical Twilight
Moon
Length of Visible Light
Length of Day
Tomorrow will be .
, % of the Moon is Illuminated

Today's Extremes

State Highs State Lows

Community

WunderPhotos

Upload Photos

1,772,932 photos uploaded!

WunderBlogs® & News

Nearby

Air Quality

  Air Quality AQ Index Pollutant
Not available.

Snow Depth

Station Depth Elevation

Earthquake Activity

City Distance Mag. Time & Date
Minimum magnitude displayed is 2.5.

Coastal Water Temperatures

Place Temperature

Nearby Weather Stations